Terminal Aerodrome Forecast
Issued by NWS Charleston, WV

Current Version | Previous Version | Graphics & Text | Print | Product List | Glossary On
Versions: 1 2 3 4 5 6 7 8 9 10 11 12 13 14 15 16 17 18 19 20 21 22 23 24 25 26 27 28
000
FTUS41 KRLX 270500 CCA
TAFPKB
TAF COR
KPKB 270555Z 2706/2806 21004KT P6SM VCTS SCT040CB BKN060
      TEMPO 2706/2708 5SM SHRA BR BKN035
     FM270800 22006KT P6SM SCT040 BKN100
     FM271400 22008KT P6SM VCTS BKN050CB
     FM271700 24010G20KT 5SM TSRA BKN040CB
     FM272200 25010G20KT P6SM BKN050
     FM280300 29008KT P6SM BKN035
      AMD NOT SKED=

USA.gov is the U.S. government's official web portal to all federal, state and local government web resources and services.